Aérodrome :
LOGIN :

S'inscrire | Disclaimer

   EN    FR    IT 

 










Légende :    VFR   VFR Marginal   IFR   IFR Intensif   IFR Très Intensif
Visi : 
Plafond : 
>= 8 km
>= 3000ft
5 à 8 km
1000 à 3000 ft
1500m à 5 km
500 à 1000 ft
800 à 1500m
200 à 500 ft
< 800m
< 200 ft
Symboles :   Orages  Brouillard  Fortes neiges  Fortes précipitations  Vent > 20 kt
SIGMETs :   Divers  Orages  Givrage  Turbulence  Onde Orograph.  Cendres Volcan.






- Altitude de l'aérodrome : 1416 ft
- Code IATA : ZRH


LSZH - Zurich

DERNIER METAR :
  • 290550Z VRB01KT 9999 FEW009 BKN055 17/15 Q1018 NOSIG

METARs EXPIRÉS :
  • 290520Z 12002KT 9999 FEW040 BKN055 17/16 Q1018 NOSIG
  • 290450Z VRB01KT 9999 FEW040 BKN055 16/15 Q1017 NOSIG
  • 290420Z VRB02KT 9999 FEW040 SCT060 16/15 Q1017 NOSIG
  • 290350Z 13003KT 9999 FEW040 BKN070 16/15 Q1017 NOSIG
  • 290320Z AUTO 17003KT 9999 SCT037 SCT042 BKN065 16/15 Q1017 NOSIG

TAF TAF LSZH
Valide du 29 à 06h jusqu'au 30 à 12h UTC


290525Z 2906/3012 VRB02KT 9999 FEW040 SCT060 TX26/2915Z TN17/2906Z TN13/3004Z
PROB40
TEMPO 2912/2917 28008KT
BECMG 2916/2918 CAVOK
BECMG 3003/3006 9999 SCT060
PROB30
TEMPO 3003/3009 SHRA FEW050TCU
ATIS : +41 43 816 2295 (DEP) +41 43 816 2294 (ARR)



MET'MAP, la Météo Aéronautique d'un coup d'oeil ! - Copyright ORBIFLY Décembre 2007 - Disclaimer

ORBIFLY MET'MAP TEAM :

Programmation & Développement : Alexandra Zaïnal
Sur une idée originale de : Baudouin d'Aumeries
Assistance à la programmation : Marc-Olivier Méhu
Soutien technique & logistique : Manuel Goepfert

Contact : metmap@orbifly.com




SOURCES & CREDITS :

   NOAA